createdAt,value
2023-05-07T00:02:18.785Z,8.07
2023-05-07T00:04:46.537Z,8.06
2023-05-07T00:07:13.566Z,8.04
2023-05-07T00:09:40.991Z,8.02
2023-05-07T00:12:08.516Z,7.98
2023-05-07T00:14:35.417Z,7.97
2023-05-07T00:17:02.415Z,7.96
2023-05-07T00:19:29.398Z,7.94
2023-05-07T00:21:57.033Z,7.90
2023-05-07T00:24:23.946Z,7.87
2023-05-07T00:26:51.428Z,7.84
2023-05-07T00:29:18.484Z,7.82
2023-05-07T00:31:45.477Z,7.77
2023-05-07T00:34:12.422Z,7.73
2023-05-07T00:36:39.469Z,7.70
2023-05-07T00:39:06.491Z,7.67
2023-05-07T00:41:33.445Z,7.66
2023-05-07T00:44:00.334Z,7.66
2023-05-07T00:46:27.505Z,7.64
2023-05-07T00:48:54.596Z,7.64
2023-05-07T00:51:21.586Z,7.62
2023-05-07T00:53:48.981Z,7.61
2023-05-07T00:56:16.233Z,7.61
2023-05-07T00:58:43.275Z,7.62
2023-05-07T01:01:10.371Z,7.62
2023-05-07T01:03:37.510Z,7.60
2023-05-07T01:06:06.023Z,7.58
2023-05-07T01:08:36.734Z,7.58
2023-05-07T01:11:04.801Z,7.57
2023-05-07T01:13:32.164Z,7.55
2023-05-07T01:15:59.171Z,7.53
2023-05-07T01:18:26.903Z,7.51
2023-05-07T01:20:54.022Z,7.50
2023-05-07T01:23:21.236Z,7.47
2023-05-07T01:25:55.111Z,7.44
2023-05-07T01:28:23.609Z,7.40
2023-05-07T01:30:56.849Z,7.37
2023-05-07T01:33:24.473Z,7.34
2023-05-07T01:35:54.225Z,7.30
2023-05-07T01:38:22.703Z,7.26
2023-05-07T01:40:49.654Z,7.24
2023-05-07T01:43:16.670Z,7.21
2023-05-07T01:45:43.832Z,7.20
2023-05-07T01:48:11.531Z,7.19
2023-05-07T01:50:38.589Z,7.17
2023-05-07T01:53:05.503Z,7.17
2023-05-07T01:55:32.565Z,7.15
2023-05-07T01:57:59.630Z,7.14
2023-05-07T02:00:26.770Z,7.14
2023-05-07T02:02:54.301Z,7.13
2023-05-07T02:05:29.744Z,7.14
2023-05-07T02:08:01.484Z,7.13
2023-05-07T02:10:29.193Z,7.13
2023-05-07T02:12:56.325Z,7.11
2023-05-07T02:15:23.342Z,7.09
2023-05-07T02:18:04.938Z,7.06
2023-05-07T02:20:32.424Z,7.05
2023-05-07T02:22:59.364Z,7.05
2023-05-07T02:25:26.700Z,7.04
2023-05-07T02:27:53.776Z,7.03
2023-05-07T02:30:23.317Z,7.02
2023-05-07T02:32:51.986Z,7.01
2023-05-07T02:35:19.126Z,6.99
2023-05-07T02:37:46.124Z,6.95
2023-05-07T02:40:14.271Z,6.94
2023-05-07T02:42:41.350Z,6.93
2023-05-07T02:45:09.326Z,6.93
2023-05-07T02:47:36.655Z,6.91
2023-05-07T02:50:04.726Z,6.90
2023-05-07T02:52:32.025Z,6.91
2023-05-07T02:54:59.246Z,6.91
2023-05-07T02:57:26.174Z,6.92
2023-05-07T02:59:53.142Z,6.92
2023-05-07T03:02:21.405Z,6.94
2023-05-07T03:04:48.378Z,6.95
2023-05-07T03:07:15.603Z,6.96
2023-05-07T03:09:42.589Z,6.98
2023-05-07T03:12:09.629Z,6.98
2023-05-07T03:14:36.594Z,6.98
2023-05-07T03:17:03.577Z,6.97
2023-05-07T03:19:31.745Z,6.97
2023-05-07T03:21:59.023Z,6.98
2023-05-07T03:26:53.128Z,7.00
2023-05-07T03:29:21.048Z,7.00
2023-05-07T03:31:48.204Z,6.98
2023-05-07T03:34:15.260Z,6.97
2023-05-07T03:36:42.290Z,6.96
2023-05-07T03:39:10.067Z,6.95
2023-05-07T03:41:39.650Z,6.94
2023-05-07T03:44:07.112Z,6.94
2023-05-07T03:46:34.934Z,6.94
2023-05-07T03:49:02.065Z,6.93
2023-05-07T03:51:29.660Z,6.91
2023-05-07T03:53:58.316Z,6.91
2023-05-07T03:56:27.844Z,6.92
2023-05-07T03:58:55.689Z,6.94
2023-05-07T04:01:22.654Z,6.95
2023-05-07T04:03:49.737Z,6.98
2023-05-07T04:06:18.534Z,7.01
2023-05-07T04:08:46.643Z,7.02
2023-05-07T04:11:14.468Z,7.04
2023-05-07T04:13:41.509Z,7.06
2023-05-07T04:16:09.416Z,7.08
2023-05-07T04:18:37.257Z,7.09
2023-05-07T04:21:04.941Z,7.11
2023-05-07T04:23:32.073Z,7.13
2023-05-07T04:26:01.968Z,7.14
2023-05-07T04:28:40.721Z,7.13
2023-05-07T04:31:07.770Z,7.12
2023-05-07T04:33:38.416Z,7.12
2023-05-07T04:36:06.949Z,7.12
2023-05-07T04:38:39.909Z,7.11
2023-05-07T04:41:07.593Z,7.14
2023-05-07T04:43:36.955Z,7.16
2023-05-07T04:46:03.965Z,7.18
2023-05-07T04:48:31.400Z,7.20
2023-05-07T04:50:58.686Z,7.22
2023-05-07T04:53:25.945Z,7.24
2023-05-07T04:55:59.433Z,7.25
2023-05-07T04:58:32.920Z,7.28
2023-05-07T05:01:02.314Z,7.30
2023-05-07T05:03:31.117Z,7.29
2023-05-07T05:06:01.036Z,7.31
2023-05-07T05:08:32.240Z,7.31
2023-05-07T05:10:59.799Z,7.31
2023-05-07T05:13:26.875Z,7.32
2023-05-07T05:15:53.996Z,7.35
2023-05-07T05:18:21.765Z,7.37
2023-05-07T05:20:48.932Z,7.41
2023-05-07T05:23:16.181Z,7.46
2023-05-07T05:25:43.272Z,7.51
2023-05-07T05:28:14.768Z,7.54
2023-05-07T05:30:44.141Z,7.58
2023-05-07T05:33:11.256Z,7.61
2023-05-07T05:35:39.014Z,7.64
2023-05-07T05:38:07.745Z,7.64
2023-05-07T05:40:34.928Z,7.65
2023-05-07T05:43:02.095Z,7.68
2023-05-07T05:45:29.570Z,7.69
2023-05-07T05:47:57.820Z,7.72
2023-05-07T05:50:24.945Z,7.74
2023-05-07T05:52:52.782Z,7.77
2023-05-07T05:55:20.133Z,7.82
2023-05-07T05:57:47.376Z,7.88
2023-05-07T06:00:14.815Z,7.94
2023-05-07T06:02:48.411Z,8.01
2023-05-07T06:05:19.936Z,8.09
2023-05-07T06:07:47.815Z,8.16
2023-05-07T06:10:15.934Z,8.25
2023-05-07T06:12:43.071Z,8.32
2023-05-07T06:15:10.778Z,8.37
2023-05-07T06:17:39.587Z,8.43
2023-05-07T06:20:08.187Z,8.49
2023-05-07T06:22:35.429Z,8.54
2023-05-07T06:25:02.942Z,8.62
2023-05-07T06:27:29.934Z,8.69
2023-05-07T06:29:57.426Z,8.78
2023-05-07T06:32:24.498Z,8.87
2023-05-07T06:34:52.046Z,8.95
2023-05-07T06:37:19.451Z,9.00
2023-05-07T06:39:54.176Z,9.06
2023-05-07T06:42:21.230Z,9.10
2023-05-07T06:44:49.104Z,9.13
2023-05-07T06:47:17.664Z,9.12
2023-05-07T06:49:46.937Z,9.09
2023-05-07T06:52:16.729Z,9.10
2023-05-07T06:54:43.837Z,9.13
2023-05-07T06:57:11.461Z,9.16
2023-05-07T06:59:38.506Z,9.15
2023-05-07T07:02:05.607Z,9.15
2023-05-07T07:04:32.630Z,9.17
2023-05-07T07:07:02.832Z,9.22
2023-05-07T07:09:30.120Z,9.25
2023-05-07T07:11:57.974Z,9.27
2023-05-07T07:14:26.833Z,9.31
2023-05-07T07:16:54.115Z,9.37
2023-05-07T07:19:21.533Z,9.42
2023-05-07T07:21:49.968Z,9.47
2023-05-07T07:24:20.401Z,9.53
2023-05-07T07:26:48.869Z,9.60
2023-05-07T07:29:15.948Z,9.65
2023-05-07T07:31:43.606Z,9.70
2023-05-07T07:34:11.385Z,9.77
2023-05-07T07:36:46.139Z,9.82
2023-05-07T07:39:15.939Z,9.89
2023-05-07T07:41:43.437Z,9.94
2023-05-07T07:44:15.941Z,9.98
2023-05-07T07:46:46.512Z,10.04
2023-05-07T07:49:14.166Z,10.10
2023-05-07T07:51:41.919Z,10.15
2023-05-07T07:54:10.574Z,10.20
2023-05-07T07:56:37.886Z,10.22
2023-05-07T07:59:06.025Z,10.20
2023-05-07T08:01:33.880Z,10.19
2023-05-07T08:04:01.515Z,10.22
2023-05-07T08:06:29.045Z,10.23
2023-05-07T08:08:56.436Z,10.23
2023-05-07T08:11:23.564Z,10.25
2023-05-07T08:13:51.451Z,10.27
2023-05-07T08:16:19.069Z,10.27
2023-05-07T08:18:46.350Z,10.26
2023-05-07T08:21:13.766Z,10.25
2023-05-07T08:23:42.487Z,10.24
2023-05-07T08:26:09.782Z,10.20
2023-05-07T08:28:37.073Z,10.20
2023-05-07T08:31:05.335Z,10.22
2023-05-07T08:33:35.519Z,10.23
2023-05-07T08:36:02.478Z,10.24
2023-05-07T08:38:33.555Z,10.28
2023-05-07T08:41:00.813Z,10.33
2023-05-07T08:43:29.859Z,10.36
2023-05-07T08:45:56.839Z,10.39
2023-05-07T08:48:26.519Z,10.42
2023-05-07T08:51:21.361Z,10.40
2023-05-07T08:53:49.473Z,10.38
2023-05-07T08:56:22.510Z,10.41
2023-05-07T08:58:50.156Z,10.43
2023-05-07T09:01:17.905Z,10.48
2023-05-07T09:03:47.059Z,10.52
2023-05-07T09:06:15.138Z,10.58
2023-05-07T09:08:43.053Z,10.64
2023-05-07T09:11:11.696Z,10.71
2023-05-07T09:13:39.052Z,10.79
2023-05-07T09:16:13.313Z,10.90
2023-05-07T09:18:43.265Z,10.97
2023-05-07T09:21:18.747Z,11.02
2023-05-07T09:23:46.576Z,11.08
2023-05-07T09:26:14.352Z,11.11
2023-05-07T09:28:44.857Z,11.13
2023-05-07T09:31:13.395Z,11.12
2023-05-07T09:33:40.783Z,11.12
2023-05-07T09:36:10.190Z,11.14
2023-05-07T09:38:38.561Z,11.14
2023-05-07T09:41:23.745Z,11.12
2023-05-07T09:43:58.924Z,11.11
2023-05-07T09:46:31.562Z,11.07
2023-05-07T09:49:02.709Z,11.04
2023-05-07T09:51:40.888Z,11.03
2023-05-07T09:54:07.882Z,11.02
2023-05-07T09:56:35.539Z,11.01
2023-05-07T09:59:03.154Z,10.95
2023-05-07T10:01:32.292Z,10.87
2023-05-07T10:03:59.996Z,10.85
2023-05-07T10:06:28.368Z,10.87
2023-05-07T10:08:55.726Z,10.90
2023-05-07T10:11:23.186Z,10.93
2023-05-07T10:13:50.537Z,10.99
2023-05-07T10:16:17.473Z,11.05
2023-05-07T10:18:49.477Z,11.10
2023-05-07T10:21:21.065Z,11.14
2023-05-07T10:23:59.533Z,11.16
2023-05-07T10:26:27.366Z,11.21
2023-05-07T10:28:59.798Z,11.27
2023-05-07T10:31:31.078Z,11.36
2023-05-07T10:33:58.289Z,11.42
2023-05-07T10:36:26.369Z,11.48
2023-05-07T10:38:53.642Z,11.56
2023-05-07T10:41:22.230Z,11.61
2023-05-07T10:43:49.830Z,11.67
2023-05-07T10:46:23.920Z,11.73
2023-05-07T10:49:07.433Z,11.76
2023-05-07T10:51:41.915Z,11.80
2023-05-07T10:54:21.317Z,11.86
2023-05-07T10:56:57.054Z,11.86
2023-05-07T10:59:32.778Z,11.84
2023-05-07T11:02:07.681Z,11.82
2023-05-07T11:05:23.753Z,11.81
2023-05-07T11:08:23.192Z,11.80
2023-05-07T11:11:08.311Z,11.82
2023-05-07T11:13:52.511Z,11.79
2023-05-07T11:16:39.783Z,11.71
2023-05-07T11:19:18.708Z,11.66
2023-05-07T11:21:49.556Z,11.63
2023-05-07T11:24:41.018Z,11.65
2023-05-07T11:27:08.463Z,11.63
2023-05-07T11:29:35.513Z,11.62
2023-05-07T11:32:12.011Z,11.60
2023-05-07T11:34:58.462Z,11.65
2023-05-07T11:37:26.413Z,11.69
2023-05-07T11:40:12.116Z,11.73
2023-05-07T11:42:43.853Z,11.80
2023-05-07T11:45:11.426Z,11.86
2023-05-07T11:47:38.971Z,11.92
2023-05-07T11:50:08.743Z,11.97
2023-05-07T11:52:36.136Z,12.01
2023-05-07T11:55:04.748Z,12.03
2023-05-07T11:57:31.841Z,12.03
2023-05-07T11:59:59.676Z,12.04
2023-05-07T12:02:27.166Z,12.07
2023-05-07T12:04:54.765Z,12.10
2023-05-07T12:07:21.858Z,12.14
2023-05-07T12:09:49.052Z,12.20
2023-05-07T12:12:18.439Z,12.24
2023-05-07T12:14:46.204Z,12.23
2023-05-07T12:17:14.468Z,12.23
2023-05-07T12:19:42.902Z,12.24
2023-05-07T12:22:12.927Z,12.22
2023-05-07T12:24:50.984Z,12.21
2023-05-07T12:27:18.345Z,12.20
2023-05-07T12:29:48.635Z,12.22
2023-05-07T12:32:17.468Z,12.22
2023-05-07T12:34:45.760Z,12.21
2023-05-07T12:37:16.753Z,12.23
2023-05-07T12:39:50.542Z,12.24
2023-05-07T12:42:18.308Z,12.27
2023-05-07T12:44:46.850Z,12.30
2023-05-07T12:47:14.005Z,12.32
2023-05-07T12:49:41.271Z,12.32
2023-05-07T12:52:08.292Z,12.32
2023-05-07T12:54:36.500Z,12.32
2023-05-07T12:57:04.847Z,12.34
2023-05-07T12:59:39.805Z,12.35
2023-05-07T13:02:06.976Z,12.35
2023-05-07T13:04:35.163Z,12.34
2023-05-07T13:07:02.271Z,12.32
2023-05-07T13:09:32.644Z,12.30
2023-05-07T13:12:02.697Z,12.31
2023-05-07T13:14:29.928Z,12.32
2023-05-07T13:16:56.876Z,12.30
2023-05-07T13:19:23.857Z,12.28
2023-05-07T13:21:51.023Z,12.24
2023-05-07T13:24:18.158Z,12.21
2023-05-07T13:26:46.088Z,12.21
2023-05-07T13:29:13.375Z,12.22
2023-05-07T13:31:44.332Z,12.21
2023-05-07T13:34:11.733Z,12.16
2023-05-07T13:36:41.702Z,12.10
2023-05-07T13:39:10.233Z,12.04
2023-05-07T13:41:37.181Z,12.02
2023-05-07T13:44:04.301Z,12.01
2023-05-07T13:46:31.430Z,12.01
2023-05-07T13:48:58.466Z,12.02
2023-05-07T13:51:25.749Z,12.02
2023-05-07T13:53:53.714Z,12.01
2023-05-07T13:56:21.360Z,11.99
2023-05-07T13:58:59.545Z,11.98
2023-05-07T14:01:27.923Z,11.96
2023-05-07T14:03:55.146Z,11.95
2023-05-07T14:06:22.957Z,11.96
2023-05-07T14:08:50.142Z,11.94
2023-05-07T14:11:17.230Z,11.94
2023-05-07T14:13:44.265Z,11.94
2023-05-07T14:16:11.204Z,11.93
2023-05-07T14:18:39.794Z,11.91
2023-05-07T14:21:10.997Z,11.91
2023-05-07T14:23:37.984Z,11.90
2023-05-07T14:26:05.092Z,11.89
2023-05-07T14:28:32.522Z,11.90
2023-05-07T14:30:59.609Z,11.90
2023-05-07T14:33:26.673Z,11.90
2023-05-07T14:35:53.788Z,11.89
2023-05-07T14:38:21.165Z,11.89
2023-05-07T14:40:48.436Z,11.88
2023-05-07T14:43:15.451Z,11.88
2023-05-07T14:45:42.906Z,11.87
2023-05-07T14:48:13.547Z,11.88
2023-05-07T14:50:40.723Z,11.88
2023-05-07T14:53:08.124Z,11.88
2023-05-07T14:55:35.970Z,11.88
2023-05-07T14:58:02.965Z,11.88
2023-05-07T15:00:29.954Z,11.88
2023-05-07T15:03:09.028Z,11.89
2023-05-07T15:05:36.554Z,11.89
2023-05-07T15:08:03.694Z,11.89
2023-05-07T15:10:30.946Z,11.87
2023-05-07T15:12:58.852Z,11.86
2023-05-07T15:15:25.944Z,11.86
2023-05-07T15:17:53.371Z,11.86
2023-05-07T15:20:20.560Z,11.86
2023-05-07T15:22:47.670Z,11.87
2023-05-07T15:25:15.051Z,11.87
2023-05-07T15:27:42.420Z,11.88
2023-05-07T15:30:11.410Z,11.87
2023-05-07T15:32:39.440Z,11.86
2023-05-07T15:35:06.895Z,11.86
2023-05-07T15:37:34.766Z,11.85
2023-05-07T15:40:03.614Z,11.84
2023-05-07T15:42:30.992Z,11.84
2023-05-07T15:44:58.459Z,11.84
2023-05-07T15:47:25.478Z,11.84
2023-05-07T15:49:53.025Z,11.83
2023-05-07T15:52:20.088Z,11.81
2023-05-07T15:54:47.337Z,11.79
2023-05-07T15:57:14.405Z,11.78
2023-05-07T15:59:42.114Z,11.77
2023-05-07T16:02:09.281Z,11.76
2023-05-07T16:04:36.875Z,11.76
2023-05-07T16:07:04.116Z,11.76
2023-05-07T16:09:31.242Z,11.75
2023-05-07T16:11:58.214Z,11.75
2023-05-07T16:14:25.317Z,11.74
2023-05-07T16:16:54.532Z,11.72
2023-05-07T16:19:23.424Z,11.72
2023-05-07T16:21:50.531Z,11.71
2023-05-07T16:24:17.788Z,11.71
2023-05-07T16:26:45.104Z,11.70
2023-05-07T16:29:12.141Z,11.69
2023-05-07T16:31:39.513Z,11.69
2023-05-07T16:34:06.576Z,11.68
2023-05-07T16:36:33.796Z,11.67
2023-05-07T16:39:00.881Z,11.66
2023-05-07T16:41:27.933Z,11.65
2023-05-07T16:43:54.905Z,11.64
2023-05-07T16:46:21.949Z,11.62
2023-05-07T16:48:48.976Z,11.60
2023-05-07T16:51:15.921Z,11.59
2023-05-07T16:53:42.921Z,11.57
2023-05-07T16:56:09.918Z,11.56
2023-05-07T16:58:36.837Z,11.55
2023-05-07T17:01:04.198Z,11.53
2023-05-07T17:03:32.377Z,11.51
2023-05-07T17:05:59.639Z,11.51
2023-05-07T17:08:26.736Z,11.49
2023-05-07T17:10:53.682Z,11.46
2023-05-07T17:13:20.797Z,11.44
2023-05-07T17:15:47.958Z,11.41
2023-05-07T17:18:15.163Z,11.40
2023-05-07T17:20:42.154Z,11.37
2023-05-07T17:23:09.150Z,11.34
2023-05-07T17:25:37.236Z,11.32
2023-05-07T17:28:04.877Z,11.29
2023-05-07T17:30:32.826Z,11.25
2023-05-07T17:33:09.324Z,11.21
2023-05-07T17:35:44.307Z,11.16
2023-05-07T17:38:11.205Z,11.12
2023-05-07T17:40:38.343Z,11.09
2023-05-07T17:43:05.335Z,11.06
2023-05-07T17:45:33.165Z,11.03
2023-05-07T17:48:00.206Z,11.01
2023-05-07T17:50:27.330Z,10.97
2023-05-07T17:52:54.322Z,10.94
2023-05-07T17:55:21.461Z,10.90
2023-05-07T17:57:48.434Z,10.86
2023-05-07T18:00:16.281Z,10.83
2023-05-07T18:02:43.326Z,10.80
2023-05-07T18:05:10.669Z,10.77
2023-05-07T18:07:37.641Z,10.74
2023-05-07T18:10:04.906Z,10.72
2023-05-07T18:12:32.046Z,10.70
2023-05-07T18:14:59.017Z,10.67
2023-05-07T18:17:27.054Z,10.65
2023-05-07T18:19:55.125Z,10.62
2023-05-07T18:22:22.714Z,10.61
2023-05-07T18:24:50.007Z,10.58
2023-05-07T18:27:17.216Z,10.56
2023-05-07T18:29:44.249Z,10.54
2023-05-07T18:32:12.148Z,10.53
2023-05-07T18:34:39.509Z,10.51
2023-05-07T18:37:06.569Z,10.50
2023-05-07T18:39:35.894Z,10.49
2023-05-07T18:42:05.311Z,10.47
2023-05-07T18:44:33.406Z,10.47
2023-05-07T18:47:00.727Z,10.46
2023-05-07T18:49:27.812Z,10.46
2023-05-07T18:51:54.880Z,10.45
2023-05-07T18:54:21.840Z,10.44
2023-05-07T18:56:49.241Z,10.43
2023-05-07T18:59:16.356Z,10.42
2023-05-07T19:01:43.769Z,10.41
2023-05-07T19:04:10.930Z,10.40
2023-05-07T19:06:38.052Z,10.38
2023-05-07T19:09:05.539Z,10.36
2023-05-07T19:11:32.637Z,10.35
2023-05-07T19:14:01.678Z,10.34
2023-05-07T19:16:30.806Z,10.32
2023-05-07T19:18:58.067Z,10.30
2023-05-07T19:21:25.246Z,10.28
2023-05-07T19:23:53.840Z,10.26
2023-05-07T19:26:21.432Z,10.25
2023-05-07T19:29:01.405Z,10.23
2023-05-07T19:31:36.391Z,10.22
2023-05-07T19:34:03.443Z,10.21
2023-05-07T19:36:33.473Z,10.20
2023-05-07T19:39:00.489Z,10.18
2023-05-07T19:41:28.868Z,10.17
2023-05-07T19:43:55.939Z,10.15
2023-05-07T19:46:23.007Z,10.15
2023-05-07T19:48:51.321Z,10.14
2023-05-07T19:51:18.374Z,10.13
2023-05-07T19:53:46.018Z,10.13
2023-05-07T19:56:13.110Z,10.12
2023-05-07T19:58:40.060Z,10.11
2023-05-07T20:01:07.392Z,10.11
2023-05-07T20:03:34.718Z,10.10
2023-05-07T20:06:02.806Z,10.08
2023-05-07T20:08:29.905Z,10.07
2023-05-07T20:10:58.116Z,10.06
2023-05-07T20:13:26.733Z,10.04
2023-05-07T20:16:00.487Z,10.03
2023-05-07T20:18:28.212Z,10.01
2023-05-07T20:20:55.287Z,9.99
2023-05-07T20:23:22.265Z,9.97
2023-05-07T20:25:50.483Z,9.95
2023-05-07T20:28:17.404Z,9.94
2023-05-07T20:30:44.385Z,9.94
2023-05-07T20:33:11.456Z,9.93
2023-05-07T20:35:38.525Z,9.91
2023-05-07T20:38:05.742Z,9.90
2023-05-07T20:40:34.644Z,9.88
2023-05-07T20:43:03.571Z,9.87
2023-05-07T20:45:30.576Z,9.85
2023-05-07T20:47:57.642Z,9.82
2023-05-07T20:50:25.276Z,9.81
2023-05-07T20:52:52.497Z,9.80
2023-05-07T20:55:19.483Z,9.79
2023-05-07T20:57:46.565Z,9.78
2023-05-07T21:00:14.208Z,9.77
2023-05-07T21:02:41.628Z,9.75
2023-05-07T21:05:08.795Z,9.75
2023-05-07T21:07:35.739Z,9.74
2023-05-07T21:10:02.815Z,9.74
2023-05-07T21:12:29.784Z,9.74
2023-05-07T21:14:56.883Z,9.74
2023-05-07T21:17:23.875Z,9.74
2023-05-07T21:19:51.311Z,9.74
2023-05-07T21:22:18.244Z,9.74
2023-05-07T21:24:45.292Z,9.73
2023-05-07T21:27:12.268Z,9.73
2023-05-07T21:29:39.726Z,9.71
2023-05-07T21:32:06.851Z,9.71
2023-05-07T21:34:33.804Z,9.71
2023-05-07T21:37:00.728Z,9.69
2023-05-07T21:39:27.696Z,9.69
2023-05-07T21:41:54.655Z,9.68
2023-05-07T21:44:21.973Z,9.66
2023-05-07T21:46:49.052Z,9.65
2023-05-07T21:49:16.032Z,9.64
2023-05-07T21:51:43.037Z,9.62
2023-05-07T21:54:10.872Z,9.60
2023-05-07T21:56:37.845Z,9.58
2023-05-07T21:59:04.814Z,9.57
2023-05-07T22:01:31.752Z,9.55
2023-05-07T22:03:58.849Z,9.53
2023-05-07T22:06:25.902Z,9.52
2023-05-07T22:08:53.024Z,9.50
2023-05-07T22:11:20.007Z,9.49
2023-05-07T22:13:46.981Z,9.47
2023-05-07T22:16:13.977Z,9.46
2023-05-07T22:18:41.065Z,9.45
2023-05-07T22:21:08.002Z,9.45
2023-05-07T22:23:34.969Z,9.45
2023-05-07T22:26:01.991Z,9.44
2023-05-07T22:28:28.992Z,9.43
2023-05-07T22:30:55.936Z,9.40
2023-05-07T22:33:22.998Z,9.38
2023-05-07T22:35:49.953Z,9.37
2023-05-07T22:38:16.914Z,9.36
2023-05-07T22:40:43.883Z,9.34
2023-05-07T22:43:10.798Z,9.32
2023-05-07T22:45:37.832Z,9.30
2023-05-07T22:48:05.207Z,9.29
2023-05-07T22:50:36.817Z,9.27
2023-05-07T22:53:04.356Z,9.27
2023-05-07T22:55:31.595Z,9.25
2023-05-07T22:57:58.529Z,9.23
2023-05-07T23:00:25.584Z,9.19
2023-05-07T23:02:52.716Z,9.17
2023-05-07T23:05:20.679Z,9.16
2023-05-07T23:07:47.601Z,9.15
2023-05-07T23:10:14.661Z,9.14
2023-05-07T23:12:42.077Z,9.14
2023-05-07T23:15:09.380Z,9.14
2023-05-07T23:17:36.341Z,9.13
2023-05-07T23:20:03.448Z,9.13
2023-05-07T23:22:30.594Z,9.12
2023-05-07T23:24:57.511Z,9.12
2023-05-07T23:27:24.482Z,9.11
2023-05-07T23:29:51.671Z,9.09
2023-05-07T23:32:18.595Z,9.06
2023-05-07T23:34:50.267Z,9.04
2023-05-07T23:37:17.235Z,9.03
2023-05-07T23:39:44.195Z,9.01
2023-05-07T23:42:11.121Z,9.01
2023-05-07T23:44:38.072Z,9.00
2023-05-07T23:47:05.008Z,8.99
2023-05-07T23:49:32.016Z,8.97
2023-05-07T23:51:59.311Z,8.95
2023-05-07T23:54:26.289Z,8.94
2023-05-07T23:56:53.276Z,8.91
2023-05-07T23:59:20.301Z,8.89
